Weather at Pixley-Richards Gilbert Heliport

Public forecast

Using degrees Fahrenheit for public forecast. Weather courtesy of forecast.io.

Closest aviation weather report (METAR) to Pixley-Richards Gilbert Heliport

Closest report is Chandler Municipal Airport, 6.3 nm (11.7 km) SSE. Retrieved 2021/09/26 23:47 UTC (58 minutes ago):

KCHD 262347Z 02010KT 10SM SCT060 BKN080 OVC100 23/19 A2997

Closest aviation forecast (TAF) to Pixley-Richards Gilbert Heliport

Closest forecast is Phoenix Sky Harbor International Airport, 9.3 nm (17.2 km) WNW. Retrieved 2021-09-27 00:40 UTC (5 minutes ago):

TAF KPHX 262337Z 2700/2806 07008KT P6SM VCSH FEW020 BKN070 OVC100 FM270300 05007G16KT P6SM VCSH SCT080 BKN100 OVC200 FM271600 12007KT P6SM FEW080 SCT100 BKN150 FM272300 26005KT P6SM FEW100 SCT150 FM280400 11006KT P6SM FEW100 SCT150